Time;durP1;ratioP1;P1;durP2;ratioP2;P2;SDS_P1;SDS_P2;PMS_P1;PMS_P2;Temp;Humidity;BMP_temperature;BMP_pressure;BME280_temperature;BME280_humidity;BME280_pressure;Samples;Min_cycle;Max_cycle;Signal;HPM_P1;HPM_P2
2023/10/12 00:00:28;;;;;;;34.17;19.23;;;19.40;99.90;;;19.74;100.00;101089.13;5072516;28;20126;-71
2023/10/12 00:02:59;;;;;;;41.65;19.00;;;19.40;99.90;;;19.73;100.00;101082.03;5072406;28;20163;-72
2023/10/12 00:05:29;;;;;;;38.55;18.50;;;19.40;99.90;;;19.71;100.00;101086.59;5072476;28;20051;-71
2023/10/12 00:07:57;;;;;;;48.13;19.23;;;19.40;99.90;;;19.41;100.00;101065.41;5072454;28;20044;-72
2023/10/12 00:10:37;;;;;;;40.08;17.70;;;19.20;99.90;;;19.31;100.00;101085.41;5072388;28;20045;-72
2023/10/12 00:13:06;;;;;;;40.00;16.13;;;19.10;99.90;;;19.06;100.00;101090.81;5072421;28;20102;-72
2023/10/12 00:15:45;;;;;;;42.00;16.48;;;18.80;99.90;;;18.89;100.00;101098.56;5072291;28;20094;-73
2023/10/12 00:18:14;;;;;;;42.47;15.93;;;18.60;99.90;;;18.84;100.00;101109.44;5072807;28;20044;-72
2023/10/12 00:20:44;;;;;;;39.75;16.02;;;18.50;99.90;;;18.70;100.00;101105.47;5072028;28;20064;-72
2023/10/12 00:23:14;;;;;;;37.65;15.73;;;18.40;99.90;;;18.62;100.00;101107.56;5072516;28;20482;-72
2023/10/12 00:25:54;;;;;;;38.22;14.48;;;18.40;99.90;;;18.63;100.00;101117.31;5072545;28;20041;-72
2023/10/12 00:28:29;;;;;;;45.67;14.30;;;18.30;99.90;;;18.55;100.00;101116.69;5072477;28;20049;-72
2023/10/12 00:30:57;;;;;;;36.53;13.82;;;18.30;99.90;;;18.55;100.00;101114.91;5067750;28;20083;-72
2023/10/12 00:33:26;;;;;;;26.85;11.75;;;18.20;99.90;;;18.48;100.00;101120.53;5062884;28;20048;-71
2023/10/12 00:36:01;;;;;;;33.28;13.13;;;18.10;99.90;;;18.42;100.00;101123.34;5072083;28;20040;-72
2023/10/12 00:38:30;;;;;;;36.78;12.27;;;18.10;99.90;;;18.54;100.00;101121.16;5072463;28;20466;-72
2023/10/12 00:41:03;;;;;;;32.75;12.93;;;18.20;99.90;;;18.61;100.00;101121.84;5070918;28;20049;-72
2023/10/12 00:43:36;;;;;;;25.42;12.55;;;18.30;99.90;;;18.63;100.00;101123.56;5071696;28;20048;-72
2023/10/12 00:46:20;;;;;;;31.50;11.43;;;18.20;99.90;;;18.78;100.00;101123.03;5071466;28;20452;-72
2023/10/12 00:48:57;;;;;;;26.38;11.43;;;18.40;99.90;;;18.65;100.00;101096.72;5070810;28;20083;-72
2023/10/12 00:51:30;;;;;;;28.33;11.15;;;18.40;99.90;;;18.80;100.00;101105.09;5084084;28;20091;-73
2023/10/12 00:53:59;;;;;;;24.02;10.55;;;18.50;99.90;;;18.93;100.00;101111.78;5069447;28;20059;-72
2023/10/12 00:56:30;;;;;;;31.80;11.15;;;18.60;99.90;;;18.96;100.00;101104.56;5070622;28;20122;-71
2023/10/12 00:59:00;;;;;;;27.98;10.48;;;18.60;99.90;;;19.00;100.00;101099.06;5072223;28;20070;-73
2023/10/12 01:01:31;;;;;;;28.40;10.68;;;18.60;99.90;;;19.02;100.00;101094.53;5071808;28;20490;-73
2023/10/12 01:03:59;;;;;;;20.83;10.18;;;18.70;99.90;;;19.12;100.00;101093.28;5071414;28;20045;-73
2023/10/12 01:06:30;;;;;;;22.42;10.00;;;18.70;99.90;;;19.18;100.00;101098.38;5073089;28;20090;-73
2023/10/12 01:09:04;;;;;;;20.38;10.05;;;18.80;99.90;;;19.18;100.00;101090.34;5075222;28;20413;-73
2023/10/12 01:11:36;;;;;;;21.77;9.73;;;18.90;99.90;;;19.27;100.00;101090.03;5075625;28;20056;-73
2023/10/12 01:14:09;;;;;;;21.08;9.38;;;18.90;99.90;;;19.33;100.00;101105.06;5058440;28;20102;-73
2023/10/12 01:16:46;;;;;;;26.60;9.48;;;19.00;99.90;;;19.41;100.00;101100.28;5074221;28;20059;-73
2023/10/12 01:19:22;;;;;;;23.08;9.00;;;19.00;99.90;;;19.48;100.00;101099.09;5075492;28;20044;-72
2023/10/12 01:21:54;;;;;;;21.10;8.90;;;19.10;99.90;;;19.55;100.00;101101.50;5075104;28;20055;-73
2023/10/12 01:24:30;;;;;;;19.08;7.70;;;19.20;99.90;;;19.63;100.00;101086.00;5087551;28;20045;-73
2023/10/12 01:26:59;;;;;;;21.77;8.32;;;19.30;99.90;;;19.70;100.00;101087.50;5068410;28;20106;-73
2023/10/12 01:29:30;;;;;;;22.08;8.23;;;19.30;99.90;;;19.69;100.00;101087.56;5074969;28;20082;-73
2023/10/12 01:34:57;;;;;;;16.63;6.93;;;19.30;99.90;;;19.76;99.80;101089.94;5012993;28;20512;-73
2023/10/12 01:37:28;;;;;;;13.93;6.45;;;19.30;99.90;;;19.80;99.43;101083.53;5060590;28;20060;-73
2023/10/12 01:40:12;;;;;;;15.18;6.60;;;19.40;99.90;;;19.65;98.83;101043.88;5075111;28;20087;-73
2023/10/12 01:42:50;;;;;;;12.40;6.10;;;19.40;99.90;;;19.77;98.58;101067.56;5075236;28;20041;-73
2023/10/12 01:45:32;;;;;;;11.73;5.55;;;19.40;99.90;;;19.77;98.74;101070.25;5074344;28;20094;-73
2023/10/12 01:48:07;;;;;;;11.60;6.18;;;19.30;99.90;;;19.76;98.78;101062.25;5074272;28;20059;-72
2023/10/12 01:50:38;;;;;;;12.70;5.60;;;19.30;99.90;;;19.74;98.90;101077.53;5073229;28;20135;-73
2023/10/12 01:53:22;;;;;;;14.77;5.75;;;19.30;99.90;;;19.77;98.81;101074.72;5072391;28;20052;-73
2023/10/12 01:55:52;;;;;;;13.63;5.93;;;19.30;99.90;;;19.77;98.79;101074.72;5074121;28;20048;-72
2023/10/12 01:58:27;;;;;;;10.40;5.45;;;19.30;99.90;;;19.80;98.78;101075.47;5086605;28;20083;-72
2023/10/12 02:00:55;;;;;;;12.25;5.55;;;19.30;99.90;;;19.77;98.83;101072.94;5103525;28;20404;-73
2023/10/12 02:03:31;;;;;;;12.20;5.43;;;19.20;99.90;;;19.80;99.01;101070.09;5074314;28;20095;-73
2023/10/12 02:06:02;;;;;;;14.88;5.93;;;19.30;99.90;;;19.78;98.86;101065.75;5074590;28;20048;-73
2023/10/12 02:08:38;;;;;;;14.95;5.35;;;19.40;99.90;;;19.64;98.62;101036.75;5073279;28;20044;-73
2023/10/12 02:11:11;;;;;;;13.25;5.55;;;19.40;99.90;;;19.76;98.63;101054.19;5072953;28;20076;-72
2023/10/12 02:13:41;;;;;;;10.25;5.63;;;19.40;99.90;;;19.79;99.04;101048.69;5073126;28;20078;-72
2023/10/12 02:16:12;;;;;;;12.43;6.05;;;19.30;99.90;;;19.86;98.89;101043.97;5074061;28;20508;-72
2023/10/12 02:18:43;;;;;;;10.73;5.90;;;19.40;99.90;;;19.88;98.56;101050.16;5073918;28;20047;-72
2023/10/12 02:21:12;;;;;;;12.65;6.32;;;19.40;99.90;;;19.95;98.38;101051.66;5073057;28;20040;-72
2023/10/12 02:23:56;;;;;;;10.82;5.78;;;19.50;99.90;;;19.99;97.98;101051.47;5074163;28;20094;-72
2023/10/12 02:26:32;;;;;;;11.73;5.15;;;19.50;99.90;;;20.00;97.49;101044.28;5074204;28;20044;-72
2023/10/12 02:29:17;;;;;;;14.82;5.75;;;19.50;99.90;;;20.02;97.24;101037.91;5058747;28;20066;-72
2023/10/12 02:31:56;;;;;;;11.23;5.80;;;19.50;99.90;;;20.01;97.12;101040.66;5073641;28;20136;-72
2023/10/12 02:34:27;;;;;;;12.45;5.78;;;19.50;99.90;;;19.98;97.12;101051.50;5073975;28;20056;-71
2023/10/12 02:37:16;;;;;;;15.32;5.85;;;19.50;99.90;;;20.04;96.88;101056.66;5072683;28;20055;-72
2023/10/12 02:39:48;;;;;;;14.23;5.60;;;19.60;99.90;;;20.03;96.75;101066.53;5074036;28;20047;-72
2023/10/12 02:42:18;;;;;;;10.48;5.72;;;19.50;99.90;;;20.04;96.69;101070.06;5073867;28;20146;-70
2023/10/12 02:47:41;;;;;;;12.50;6.40;;;19.50;99.90;;;20.00;96.44;101047.84;5065233;28;20064;-72
2023/10/12 02:50:29;;;;;;;10.73;5.95;;;19.50;99.90;;;19.95;96.64;101046.28;5073807;28;20094;-72
2023/10/12 02:53:08;;;;;;;10.77;5.80;;;19.50;99.90;;;19.98;96.46;101057.78;5072011;28;20080;-73
2023/10/12 02:55:42;;;;;;;13.73;6.55;;;19.50;99.90;;;19.91;96.50;101055.38;5072566;28;20051;-72
2023/10/12 02:58:23;;;;;;;13.68;6.63;;;19.50;99.90;;;19.98;96.47;101062.25;5072759;28;20080;-72
2023/10/12 03:00:56;;;;;;;12.07;6.60;;;19.50;99.90;;;19.95;96.30;101051.66;5071575;28;20048;-72
2023/10/12 03:03:33;;;;;;;9.98;6.32;;;19.50;99.90;;;19.84;96.46;101021.69;5071658;28;20178;-73
2023/10/12 03:06:07;;;;;;;12.02;5.88;;;19.40;99.90;;;20.00;96.26;101045.16;5072845;28;20098;-73
2023/10/12 03:08:47;;;;;;;10.57;6.35;;;19.50;99.90;;;19.92;96.69;101043.72;5072997;28;20478;-73
2023/10/12 03:11:20;;;;;;;13.73;7.27;;;19.40;99.90;;;20.05;96.86;101055.72;5073039;28;20044;-72
2023/10/12 03:14:00;;;;;;;11.65;6.05;;;19.50;99.90;;;20.05;96.67;101063.78;5073063;28;20071;-72
2023/10/12 03:16:34;;;;;;;13.07;5.95;;;19.50;99.90;;;20.04;96.22;101067.38;5057713;28;20040;-72
2023/10/12 03:19:17;;;;;;;10.55;6.03;;;19.50;99.90;;;20.05;96.27;101074.53;5072935;28;20106;-72
2023/10/12 03:21:47;;;;;;;13.02;6.20;;;19.50;99.90;;;20.06;95.93;101074.47;5071850;28;20048;-73
2023/10/12 03:24:17;;;;;;;12.30;6.53;;;19.60;99.90;;;19.95;95.76;101068.66;5073132;28;20048;-72
2023/10/12 03:26:57;;;;;;;13.43;6.85;;;19.60;99.90;;;20.08;95.89;101087.81;5073340;28;20102;-73
2023/10/12 03:29:26;;;;;;;13.48;6.13;;;19.60;99.90;;;20.08;95.85;101086.00;5072318;28;20044;-72
2023/10/12 03:31:56;;;;;;;16.30;7.07;;;19.60;99.90;;;20.08;95.89;101090.50;5071444;28;20059;-72
2023/10/12 03:34:36;;;;;;;10.70;6.72;;;19.60;99.90;;;19.95;95.76;101071.34;5072333;28;20044;-72
2023/10/12 03:37:14;;;;;;;12.60;6.97;;;19.60;99.90;;;20.06;95.64;101085.19;5072756;28;20040;-72
2023/10/12 03:39:58;;;;;;;12.48;6.40;;;19.60;99.90;;;20.00;96.01;101087.25;5072963;28;20040;-71
2023/10/12 03:42:42;;;;;;;12.50;7.30;;;19.50;99.90;;;19.97;96.82;101095.44;5072625;28;20048;-71
2023/10/12 03:45:24;;;;;;;13.10;7.55;;;19.40;99.90;;;19.93;97.00;101092.00;5072580;28;20040;-72
2023/10/12 03:48:14;;;;;;;13.00;7.18;;;19.50;99.90;;;20.02;96.73;101090.75;5057356;28;20049;-72
2023/10/12 03:53:31;;;;;;;12.95;7.18;;;19.50;99.90;;;20.01;96.71;101095.25;5070670;28;20490;-71
2023/10/12 03:56:01;;;;;;;12.52;6.80;;;19.50;99.90;;;20.00;96.86;101074.69;5072403;28;20054;-72
2023/10/12 03:58:38;;;;;;;8.20;6.68;;;19.50;99.90;;;20.00;96.65;101068.44;5071899;28;20040;-72
2023/10/12 04:01:10;;;;;;;10.05;6.55;;;19.60;99.90;;;20.05;96.29;101082.59;5070517;28;20040;-71
2023/10/12 04:03:42;;;;;;;12.75;7.20;;;19.60;99.90;;;20.02;96.25;101086.25;5071878;28;20135;-72
2023/10/12 04:06:16;;;;;;;11.98;6.85;;;19.50;99.90;;;19.99;96.46;101080.13;5072047;28;20054;-71
2023/10/12 04:08:51;;;;;;;10.73;6.15;;;19.50;99.90;;;20.01;96.34;101087.22;5072209;28;20051;-72
2023/10/12 04:16:57;;;;;;;8.52;4.50;;;19.60;99.90;;;20.06;95.78;101095.94;5072073;28;20105;-72
2023/10/12 04:19:33;;;;;;;7.18;4.65;;;19.60;99.90;;;20.01;95.88;101097.94;5057057;28;20478;-72
2023/10/12 04:22:24;;;;;;;4.45;4.03;;;19.60;99.90;;;20.04;95.99;101113.94;5067598;28;20056;-71
2023/10/12 04:24:54;;;;;;;6.47;3.85;;;19.60;99.90;;;20.05;95.72;101102.28;5069955;28;20053;-71
2023/10/12 04:27:39;;;;;;;5.70;4.20;;;19.60;99.90;;;20.06;95.79;101103.13;5072440;28;20044;-71
2023/10/12 04:30:30;;;;;;;8.38;4.35;;;19.60;99.90;;;20.00;95.70;101092.63;5072212;28;20444;-72
2023/10/12 04:33:13;;;;;;;;;;;19.50;99.90;;;19.99;95.55;101090.88;5072313;28;20063;-72
2023/10/12 04:36:09;;;;;;;6.90;4.13;;;19.60;99.90;;;19.87;95.69;101085.97;5071885;28;19936;-73
2023/10/12 04:38:57;;;;;;;5.20;4.30;;;19.40;99.90;;;19.97;95.83;101104.38;5070956;28;20049;-73
2023/10/12 04:41:38;;;;;;;4.30;3.95;;;19.40;99.90;;;19.88;95.82;101110.09;5074915;28;20090;-73
2023/10/12 04:44:35;;;;;;;3.78;3.40;;;19.40;99.90;;;19.91;96.28;101115.34;5075794;28;20448;-72
2023/10/12 04:47:06;;;;;;;5.75;4.00;;;19.40;99.90;;;19.89;96.60;101129.75;5076536;28;20561;-72
2023/10/12 04:49:54;;;;;;;5.82;4.00;;;19.30;99.90;;;19.85;96.77;101126.31;5075824;28;20393;-72
2023/10/12 04:52:32;;;;;;;4.13;3.70;;;19.30;99.90;;;19.77;97.33;101117.69;5075964;28;20059;-72
2023/10/12 04:58:10;;;;;;;5.93;3.78;;;19.20;99.90;;;19.92;97.18;101121.59;5075442;28;20040;-72
2023/10/12 05:03:39;;;;;;;8.45;4.50;;;19.40;99.90;;;19.85;97.54;101129.00;5074491;28;20054;-72
2023/10/12 05:06:08;;;;;;;6.28;4.75;;;19.30;99.90;;;19.83;97.79;101138.94;5074933;28;20394;-72
2023/10/12 05:08:40;;;;;;;4.13;3.72;;;19.30;99.90;;;19.84;97.81;101129.94;5059575;28;20093;-72
2023/10/12 05:11:10;;;;;;;6.30;4.43;;;19.30;99.90;;;19.86;97.77;101129.91;5075891;28;20080;-73
2023/10/12 05:13:43;;;;;;;6.03;4.20;;;19.30;99.90;;;19.80;98.03;101139.06;5075220;28;20040;-73
2023/10/12 05:16:14;;;;;;;8.85;4.43;;;19.30;99.90;;;19.80;98.34;101136.38;5075494;28;20048;-73
2023/10/12 05:18:47;;;;;;;5.78;4.53;;;19.20;99.90;;;19.81;98.35;101140.78;5075516;28;20116;-72
2023/10/12 05:21:16;;;;;;;6.47;4.57;;;19.30;99.90;;;19.83;98.57;101146.97;5074904;28;20482;-72
2023/10/12 05:23:45;;;;;;;5.43;4.03;;;19.30;99.90;;;19.87;98.32;101145.94;5075452;28;20079;-72
2023/10/12 05:26:14;;;;;;;7.45;4.75;;;19.30;99.90;;;19.89;98.32;101153.94;5073529;28;20044;-72
2023/10/12 05:28:57;;;;;;;8.35;4.82;;;19.40;99.90;;;19.79;98.16;101126.56;5075012;28;20051;-72
2023/10/12 05:31:29;;;;;;;8.45;5.25;;;19.40;99.90;;;19.93;97.95;101159.13;5074928;28;20091;-72
2023/10/12 05:34:25;;;;;;;7.00;4.80;;;19.40;99.90;;;19.91;98.00;101152.06;5074925;28;20041;-72
2023/10/12 05:36:52;;;;;;;7.70;5.25;;;19.40;99.90;;;19.87;98.00;101153.09;5074786;28;20525;-72
2023/10/12 05:39:22;;;;;;;8.55;5.00;;;19.30;99.90;;;19.84;98.14;101153.25;5073336;28;20052;-72
2023/10/12 05:41:53;;;;;;;7.28;5.60;;;19.30;99.90;;;19.88;98.12;101149.50;5074861;28;20474;-72
2023/10/12 05:44:26;;;;;;;6.43;4.93;;;19.30;99.90;;;19.87;97.99;101151.31;5074720;28;20520;-71
2023/10/12 05:47:00;;;;;;;7.20;6.50;;;19.40;99.90;;;19.82;97.53;101144.38;5074736;28;20401;-73
2023/10/12 05:49:33;;;;;;;7.75;7.05;;;19.40;99.90;;;19.80;96.82;101156.03;5074634;28;20127;-72
2023/10/12 05:52:06;;;;;;;7.22;6.53;;;19.40;99.90;;;19.69;96.19;101154.66;5058260;28;20040;-74
2023/10/12 05:54:38;;;;;;;6.28;5.68;;;19.20;99.90;;;19.66;95.71;101157.47;5074420;28;20545;-73
2023/10/12 05:57:17;;;;;;;6.20;5.60;;;19.20;99.90;;;19.54;95.40;101157.94;5074523;28;20127;-74
2023/10/12 05:59:45;;;;;;;5.57;5.18;;;19.10;99.90;;;19.47;95.46;101157.25;5074709;28;20036;-74
2023/10/12 06:02:17;;;;;;;7.55;5.20;;;19.10;99.90;;;19.36;95.42;101155.91;5073951;28;20438;-74
2023/10/12 06:04:47;;;;;;;5.43;4.93;;;19.10;99.90;;;19.31;95.45;101155.16;5072196;28;20049;-74
2023/10/12 06:07:17;;;;;;;5.40;4.60;;;19.00;99.90;;;19.33;95.42;101183.72;5073970;28;20048;-74
2023/10/12 06:09:45;;;;;;;5.00;4.50;;;19.00;99.90;;;19.31;95.38;101177.50;5073891;28;20406;-75
2023/10/12 06:12:18;;;;;;;4.43;4.03;;;18.90;99.90;;;19.26;95.27;101181.28;5073103;28;20054;-76
2023/10/12 06:14:53;;;;;;;4.30;3.90;;;18.90;99.90;;;19.09;95.00;101180.97;5073764;28;20131;-76
2023/10/12 06:17:31;;;;;;;4.22;3.60;;;18.70;99.90;;;19.04;95.06;101185.63;5073183;28;20048;-76
2023/10/12 06:20:10;;;;;;;3.70;3.40;;;18.70;99.90;;;18.83;94.95;101188.09;5074618;28;20389;-76
2023/10/12 06:22:39;;;;;;;3.15;2.92;;;18.50;99.90;;;18.78;95.03;101176.66;5073710;28;20571;-75
2023/10/12 06:25:16;;;;;;;4.03;3.08;;;18.50;99.90;;;18.77;95.01;101193.69;5073783;28;20076;-76
2023/10/12 06:27:45;;;;;;;3.33;3.03;;;18.40;99.90;;;18.64;95.13;101197.66;5073631;28;20056;-75
2023/10/12 06:30:18;;;;;;;3.15;2.88;;;18.30;99.90;;;18.43;95.04;101201.03;5072811;28;20045;-75
2023/10/12 06:32:48;;;;;;;2.53;2.33;;;18.20;99.90;;;18.45;95.54;101201.84;5073513;28;20070;-75
2023/10/12 06:35:25;;;;;;;2.88;2.67;;;18.10;99.90;;;18.37;95.51;101198.50;5073881;28;20055;-74
2023/10/12 06:41:28;;;;;;;2.70;2.50;;;18.00;99.90;;;17.74;96.52;101192.38;5031424;28;20056;-75
2023/10/12 06:44:12;;;;;;;3.53;2.60;;;17.60;99.90;;;17.96;97.42;101204.25;5031498;28;20116;-75
2023/10/12 06:46:46;;;;;;;3.53;3.00;;;17.60;99.90;;;17.90;97.36;101205.28;5065134;28;20065;-73
2023/10/12 06:49:18;;;;;;;4.38;3.08;;;17.60;99.90;;;17.96;97.57;101209.59;5073592;28;20448;-73
2023/10/12 06:51:53;;;;;;;3.83;3.47;;;17.60;99.90;;;17.88;97.61;101209.81;5073794;28;20061;-71
2023/10/12 06:54:31;;;;;;;3.88;3.53;;;17.60;99.90;;;17.86;97.88;101221.50;5073434;28;20124;-72
2023/10/12 06:59:59;;;;;;;4.78;4.20;;;17.40;99.90;;;17.79;98.93;101222.56;5073376;28;20052;-72
2023/10/12 07:02:28;;;;;;;5.05;4.65;;;17.50;99.90;;;17.52;99.13;101234.03;5073283;28;20052;-74
2023/10/12 07:04:57;;;;;;;5.35;4.85;;;17.30;99.90;;;17.23;99.98;101237.44;5072833;28;20044;-83
2023/10/12 07:07:30;;;;;;;5.38;4.82;;;17.10;99.90;;;17.07;100.00;101225.41;5072593;28;20044;-84
2023/10/12 07:10:13;;;;;;;6.30;5.07;;;16.90;99.90;;;16.93;100.00;101232.88;5072803;28;20052;-80
2023/10/12 07:12:45;;;;;;;5.35;4.85;;;16.70;99.90;;;16.73;100.00;101214.66;5072675;28;20044;-74
2023/10/12 07:15:19;;;;;;;5.22;4.82;;;16.60;99.90;;;17.04;100.00;101228.13;5072864;28;20472;-77
2023/10/12 07:17:49;;;;;;;5.70;5.10;;;16.60;99.90;;;17.01;100.00;101242.44;5072892;28;20213;-78
2023/10/12 07:20:40;;;;;;;5.97;5.15;;;16.70;99.90;;;16.84;100.00;101251.81;5073058;28;20475;-80
2023/10/12 07:23:18;;;;;;;5.63;4.95;;;16.60;99.90;;;16.61;100.00;101240.75;5072950;28;20413;-74
2023/10/12 07:25:50;;;;;;;6.47;5.07;;;16.30;99.90;;;16.48;100.00;101242.84;5072653;28;20111;-76
2023/10/12 07:28:25;;;;;;;4.68;4.20;;;16.20;99.90;;;16.30;100.00;101245.03;5072749;28;20440;-77
2023/10/12 07:31:15;;;;;;;6.10;5.25;;;16.10;99.90;;;16.10;100.00;101246.28;5072908;28;20078;-75
2023/10/12 07:33:59;;;;;;;5.53;4.97;;;15.80;99.90;;;15.93;100.00;101239.59;5073044;28;20453;-81
2023/10/12 07:36:45;;;;;;;5.65;4.97;;;15.80;99.90;;;16.13;100.00;101256.94;5057257;28;20048;-72
2023/10/12 07:39:19;;;;;;;6.78;5.53;;;15.80;99.90;;;16.02;100.00;101263.41;5072706;28;20088;-79
2023/10/12 07:42:00;;;;;;;6.05;5.28;;;15.70;99.90;;;16.18;100.00;101262.19;5072766;28;20468;-78
2023/10/12 07:44:37;;;;;;;6.95;5.55;;;15.80;99.90;;;16.03;100.00;101252.69;5057633;28;20040;-72
2023/10/12 07:47:14;;;;;;;8.00;5.40;;;15.70;99.90;;;15.90;100.00;101251.19;5072677;28;20048;-74
2023/10/12 07:49:48;;;;;;;8.88;5.32;;;15.70;99.90;;;16.12;100.00;101246.28;5072920;28;20063;-73
2023/10/12 07:52:38;;;;;;;8.13;6.05;;;15.80;99.90;;;16.03;100.00;101241.13;5057271;28;20049;-73
2023/10/12 07:55:12;;;;;;;6.15;5.30;;;15.80;99.90;;;15.90;100.00;101205.84;5071688;28;20114;-76
2023/10/12 07:57:41;;;;;;;9.10;6.30;;;15.80;99.90;;;16.10;100.00;101256.13;5073034;28;20044;-77
2023/10/12 08:06:00;;;;;;;7.35;6.00;;;15.80;99.90;;;15.94;100.00;101270.69;5047777;28;20092;-83
2023/10/12 08:08:34;;;;;;;7.15;6.30;;;15.70;99.90;;;15.72;100.00;101208.84;5072063;28;20040;-84
2023/10/12 08:11:27;;;;;;;7.32;6.10;;;15.70;99.90;;;15.51;100.00;101251.06;5071904;28;20048;-81
2023/10/12 08:13:55;;;;;;;5.93;5.40;;;15.50;99.90;;;15.31;100.00;101179.44;5072543;28;20059;-80
2023/10/12 08:16:27;;;;;;;7.85;6.32;;;15.50;99.90;;;15.27;100.00;101213.25;5074774;28;20094;-80
2023/10/12 08:21:44;;;;;;;7.50;6.18;;;15.20;99.90;;;15.69;100.00;101266.72;5075879;28;20577;-80
2023/10/12 08:24:23;;;;;;;12.40;6.30;;;15.30;99.90;;;15.58;100.00;101276.72;5074985;28;20045;-82
2023/10/12 08:27:00;;;;;;;6.43;5.65;;;15.30;99.90;;;15.71;100.00;101275.56;5075684;28;20043;-77
2023/10/12 08:32:27;;;;;;;7.57;6.03;;;15.30;99.90;;;15.74;100.00;101275.50;5075716;28;20083;-83
2023/10/12 08:35:32;;;;;;;7.65;6.25;;;15.40;99.90;;;15.27;100.00;101202.59;5076121;28;20048;-84
2023/10/12 08:38:12;;;;;;;7.45;6.13;;;15.50;99.90;;;15.95;100.00;101259.97;5064164;28;20050;-80
2023/10/12 08:40:56;;;;;;;;;;;15.70;99.90;;;16.13;100.00;101259.59;5076318;28;20105;-82
2023/10/12 08:46:10;;;;;;;8.63;6.32;;;15.70;99.90;;;16.08;100.00;101265.94;5073946;28;20059;-82
2023/10/12 08:48:52;;;;;;;7.13;6.40;;;15.80;99.90;;;16.11;100.00;101272.09;5076106;28;20125;-84
2023/10/12 08:51:30;;;;;;;8.10;6.72;;;15.90;99.90;;;16.00;100.00;101267.88;5060001;28;20406;-79
2023/10/12 08:54:07;;;;;;;6.55;5.93;;;15.90;99.90;;;15.57;100.00;101234.94;5075989;28;20109;-80
2023/10/12 08:56:45;;;;;;;8.00;5.95;;;15.60;99.90;;;15.57;100.00;101234.94;5075941;28;20063;-79
2023/10/12 08:59:17;;;;;;;5.53;4.97;;;15.40;99.90;;;15.43;100.00;101237.00;5075030;28;20397;-80
2023/10/12 09:01:45;;;;;;;6.05;5.00;;;15.20;99.90;;;15.46;100.00;101242.28;5075849;28;20076;-81
2023/10/12 09:04:14;;;;;;;5.30;4.80;;;15.20;99.90;;;15.57;100.00;101241.16;5075790;28;20068;-78
2023/10/12 09:06:56;;;;;;;5.20;4.80;;;15.30;99.90;;;15.70;100.00;101239.16;5075738;28;20032;-78
2023/10/12 09:12:16;;;;;;;5.22;4.72;;;15.50;99.90;;;16.03;100.00;101239.34;5075336;28;20047;-76
2023/10/12 09:14:50;;;;;;;4.93;4.43;;;15.70;99.90;;;16.03;100.00;101236.69;5090177;28;20088;-77
2023/10/12 09:17:30;;;;;;;4.88;4.40;;;15.70;99.90;;;15.92;100.00;101237.81;5075268;28;20140;-79
2023/10/12 09:20:28;;;;;;;5.28;4.82;;;15.60;99.90;;;15.90;100.00;101239.63;5075594;28;20047;-78
2023/10/12 09:23:10;;;;;;;5.78;5.20;;;15.60;99.90;;;15.75;100.00;101224.81;5059363;28;20048;-78
2023/10/12 09:28:42;;;;;;;5.72;5.22;;;15.70;99.90;;;16.09;100.00;101228.53;5074362;28;20413;-78
2023/10/12 09:31:14;;;;;;;5.68;5.07;;;15.80;99.90;;;15.98;100.00;101205.66;5075054;28;20139;-82
2023/10/12 09:33:54;;;;;;;6.03;5.50;;;15.80;99.90;;;16.29;100.00;101230.78;5075072;28;20064;-76
2023/10/12 09:36:24;;;;;;;6.20;5.20;;;16.00;99.90;;;16.23;100.00;101228.25;5074880;28;20509;-83
2023/10/12 09:38:55;;;;;;;6.75;5.60;;;15.90;99.90;;;16.29;100.00;101230.78;5075060;28;20048;-87
2023/10/12 09:41:32;;;;;;;6.28;5.50;;;16.00;99.90;;;16.32;100.00;101222.69;5074852;28;20044;-83
2023/10/12 09:44:04;;;;;;;7.07;6.30;;;16.00;99.90;;;16.47;100.00;101224.16;5074699;28;20389;-84
2023/10/12 09:46:34;;;;;;;6.97;6.28;;;16.20;99.90;;;16.44;100.00;101225.09;5058883;28;20476;-84
2023/10/12 09:49:06;;;;;;;;;;;16.20;99.90;;;16.63;100.00;101221.13;5075211;28;20051;-85
2023/10/12 09:51:37;;;;;;;6.50;5.90;;;16.40;99.90;;;16.51;100.00;101210.72;5074721;28;20023;-83
2023/10/12 09:54:15;;;;;;;7.35;6.65;;;16.30;99.90;;;16.28;100.00;101221.00;5074893;28;20115;-84
2023/10/12 09:56:52;;;;;;;7.78;6.65;;;16.00;99.90;;;16.09;100.00;101208.97;5074668;28;20470;-86
2023/10/12 09:59:22;;;;;;;8.57;7.10;;;15.90;99.90;;;16.15;100.00;101199.06;5074477;28;20036;-87
2023/10/12 10:01:59;;;;;;;11.65;7.07;;;15.80;99.90;;;16.21;100.00;101203.38;5073448;28;20048;-83
2023/10/12 10:04:29;;;;;;;8.30;7.50;;;15.90;99.90;;;16.21;100.00;101201.59;5074671;28;20055;-85
2023/10/12 10:07:15;;;;;;;8.23;7.43;;;15.90;99.90;;;16.27;100.00;101201.47;5074292;28;20047;-87
2023/10/12 10:09:48;;;;;;;8.45;6.93;;;15.90;99.90;;;16.24;100.00;101171.25;5074619;28;20453;-85
2023/10/12 10:12:18;;;;;;;9.02;7.80;;;16.00;99.90;;;16.41;100.00;101189.59;5074855;28;20453;-82
2023/10/12 10:14:53;;;;;;;8.70;7.88;;;16.00;99.90;;;16.38;100.00;101186.97;5074263;28;20051;-78
2023/10/12 10:17:27;;;;;;;9.60;8.57;;;16.00;99.90;;;16.36;100.00;101200.34;5074692;28;20044;-85
2023/10/12 10:20:34;;;;;;;9.05;8.23;;;16.10;99.90;;;16.61;100.00;101188.22;5072800;28;20070;-87
2023/10/12 10:23:03;;;;;;;8.75;7.85;;;16.20;99.90;;;16.47;100.00;101160.97;5073960;28;20037;-88
2023/10/12 10:25:43;;;;;;;10.38;8.32;;;16.30;99.90;;;16.68;100.00;101180.94;5073969;28;20045;-83
2023/10/12 10:28:23;;;;;;;10.55;8.98;;;16.40;99.90;;;16.63;100.00;101169.47;5073906;28;20044;-84
2023/10/12 10:30:56;;;;;;;11.10;9.15;;;16.30;99.90;;;16.75;100.00;101172.75;5074520;28;20124;-87
2023/10/12 10:33:28;;;;;;;11.30;9.07;;;16.40;99.90;;;16.88;100.00;101178.66;5073803;28;20131;-87
2023/10/12 10:36:01;;;;;;;11.77;9.32;;;16.50;99.90;;;16.60;100.00;101129.50;5074288;28;20480;-83
2023/10/12 10:38:33;;;;;;;11.82;9.75;;;16.50;99.90;;;16.60;100.00;101191.81;5073558;28;20128;-85
2023/10/12 10:41:08;;;;;;;11.25;10.05;;;16.40;99.90;;;16.73;100.00;101171.91;5074396;28;20410;-85
2023/10/12 10:43:38;;;;;;;12.23;10.30;;;16.40;99.90;;;16.95;100.00;101175.81;5073723;28;20045;-86
2023/10/12 10:46:09;;;;;;;10.68;9.57;;;16.60;99.90;;;17.27;100.00;101182.06;5073550;28;20040;-85
2023/10/12 10:48:41;;;;;;;13.27;9.95;;;16.80;99.90;;;17.27;100.00;101180.28;5073479;28;20036;-75
2023/10/12 10:51:18;;;;;;;15.18;9.75;;;16.90;99.90;;;16.95;100.00;101178.47;5073538;28;20037;-74
2023/10/12 10:53:52;;;;;;;11.65;10.40;;;16.70;99.90;;;17.18;100.00;101175.19;5072872;28;20398;-76
2023/10/12 10:56:34;;;;;;;12.63;10.43;;;16.80;99.90;;;17.31;100.00;101173.94;5073125;28;20051;-74
2023/10/12 10:59:06;;;;;;;12.82;10.00;;;16.90;99.90;;;17.33;100.00;101181.91;5072967;28;20045;-74
2023/10/12 11:01:35;;;;;;;11.98;10.68;;;17.00;99.90;;;17.39;100.00;101177.28;5072909;28;20379;-73
2023/10/12 11:04:09;;;;;;;15.60;12.07;;;17.00;99.90;;;16.99;100.00;101169.44;5073136;28;20071;-74
2023/10/12 11:06:39;;;;;;;16.17;12.65;;;16.70;99.90;;;16.82;100.00;101165.47;5073215;28;20044;-81
2023/10/12 11:09:09;;;;;;;18.33;14.30;;;16.50;99.90;;;16.68;100.00;101164.94;5088244;28;20071;-76
2023/10/12 11:11:37;;;;;;;24.63;16.83;;;16.40;99.90;;;16.62;100.00;101149.94;5071906;28;20051;-77
2023/10/12 11:14:08;;;;;;;26.48;18.92;;;16.30;99.90;;;16.68;100.00;101140.88;5072764;28;20417;-77
2023/10/12 11:16:37;;;;;;;23.05;16.88;;;16.40;99.90;;;16.83;100.00;101145.84;5072118;28;20070;-81
2023/10/12 11:19:09;;;;;;;27.58;17.88;;;16.40;99.90;;;17.26;100.00;101153.59;5073083;28;20417;-81
2023/10/12 11:21:45;;;;;;;21.92;17.33;;;16.70;99.90;;;17.57;100.00;101147.41;5073326;28;20045;-81
2023/10/12 11:24:14;;;;;;;22.60;15.98;;;17.10;99.90;;;17.77;100.00;101145.00;5073008;28;20070;-81